FDX8VM EDDH-EGCC
Flight info
| Callsign | FDX8VM |
|---|---|
| Flight time | N/A |
| Altitude | 34000 |
| Route | WSN5G/33 WSN N125 ITMIZ DCT MIMVA DCT OTBED |
| Aircraft | A306/H-SDE3FGHIRWY/LB1 |
Departure
| Time | 2026-04-30 18:37 |
|---|---|
| Airport | Hamburg Helmut Schmidt Airport (EDDH) |
Arrival
| Time | N/A |
|---|---|
| Airport | Manchester Airport (EGCC) |
| Time | Latitude | Longitude | Altitude | Speed | Heading |
|---|---|---|---|---|---|
| 2026-04-30 17:39 | 53.62444 | 10.00501 | 48 ft | 0 kts | 244° |
| 2026-04-30 18:15 | 53.62447 | 10.00510 | 48 ft | 4 kts | 250° |
| 2026-04-30 18:16 | 53.62428 | 10.00558 | 44 ft | 3 kts | 335° |
| 2026-04-30 18:16 | 53.62426 | 10.00560 | 43 ft | 1 kts | 334° |
| 2026-04-30 18:19 | 53.62432 | 10.00556 | 44 ft | 3 kts | 334° |
| 2026-04-30 18:20 | 53.62472 | 10.00522 | 48 ft | 9 kts | 333° |
| 2026-04-30 18:20 | 53.62537 | 10.00456 | 48 ft | 12 kts | 327° |
| 2026-04-30 18:20 | 53.62619 | 10.00356 | 48 ft | 16 kts | 319° |
| 2026-04-30 18:20 | 53.62643 | 10.00279 | 49 ft | 3 kts | 267° |
| 2026-04-30 18:21 | 53.62593 | 10.00244 | 48 ft | 10 kts | 201° |
| 2026-04-30 18:21 | 53.62569 | 10.00200 | 48 ft | 0 kts | 241° |
| 2026-04-30 18:28 | 53.62567 | 10.00193 | 48 ft | 0 kts | 241° |
| 2026-04-30 18:30 | 53.62562 | 10.00178 | 48 ft | 3 kts | 241° |
| 2026-04-30 18:31 | 53.62547 | 10.00125 | 46 ft | 7 kts | 246° |
| 2026-04-30 18:31 | 53.62591 | 9.99981 | 49 ft | 0 kts | 331° |
| 2026-04-30 18:36 | 53.62838 | 9.99767 | 52 ft | 78 kts | 333° |
| 2026-04-30 18:37 | 53.63527 | 9.99171 | 52 ft | 146 kts | 333° |
| 2026-04-30 18:37 | 53.64623 | 9.98245 | 313 ft | 197 kts | 334° |
| 2026-04-30 18:37 | 53.65933 | 9.97132 | 973 ft | 231 kts | 334° |
| 2026-04-30 18:37 | 53.67469 | 9.95812 | 1521 ft | 263 kts | 334° |
| 2026-04-30 18:38 | 53.69169 | 9.94346 | 2066 ft | 274 kts | 334° |
| 2026-04-30 18:38 | 53.70809 | 9.92906 | 2596 ft | 261 kts | 331° |
| 2026-04-30 18:38 | 53.72103 | 9.90817 | 3140 ft | 261 kts | 298° |
| 2026-04-30 18:38 | 53.72460 | 9.87862 | 3693 ft | 261 kts | 262° |
| 2026-04-30 18:39 | 53.71781 | 9.85051 | 4266 ft | 262 kts | 235° |
| 2026-04-30 18:39 | 53.70754 | 9.82463 | 4841 ft | 269 kts | 236° |
| 2026-04-30 18:39 | 53.69804 | 9.79693 | 5390 ft | 275 kts | 241° |
| 2026-04-30 18:39 | 53.68986 | 9.76747 | 5967 ft | 280 kts | 245° |
| 2026-04-30 18:40 | 53.68255 | 9.73686 | 6514 ft | 284 kts | 248° |
| 2026-04-30 18:40 | 53.67576 | 9.70574 | 7061 ft | 291 kts | 249° |
| 2026-04-30 18:40 | 53.66873 | 9.67213 | 7632 ft | 316 kts | 250° |
| 2026-04-30 18:40 | 53.66134 | 9.63643 | 8184 ft | 327 kts | 250° |
| 2026-04-30 18:41 | 53.65389 | 9.60002 | 8740 ft | 330 kts | 251° |
| 2026-04-30 18:41 | 53.64664 | 9.56320 | 9296 ft | 332 kts | 246° |
| 2026-04-30 18:41 | 53.63405 | 9.53077 | 9873 ft | 333 kts | 230° |
| 2026-04-30 18:41 | 53.61932 | 9.50044 | 10441 ft | 336 kts | 229° |
| 2026-04-30 18:42 | 53.60445 | 9.46988 | 10969 ft | 339 kts | 229° |
| 2026-04-30 18:42 | 53.57425 | 9.40419 | 12085 ft | 372 kts | 231° |
| 2026-04-30 18:42 | 53.55842 | 9.36870 | 12655 ft | 388 kts | 231° |
| 2026-04-30 18:45 | 53.38604 | 8.97421 | 18296 ft | 431 kts | 233° |
| 2026-04-30 18:45 | 53.36816 | 8.93332 | 18888 ft | 435 kts | 233° |
| 2026-04-30 18:45 | 53.35027 | 8.89267 | 19416 ft | 438 kts | 232° |
| 2026-04-30 18:46 | 53.33356 | 8.84996 | 19967 ft | 441 kts | 244° |
| 2026-04-30 18:46 | 53.32248 | 8.80204 | 20536 ft | 444 kts | 252° |